createdAt,value
2022-11-30T00:02:02.782Z,81.53
2022-11-30T00:04:33.278Z,82.97
2022-11-30T00:07:08.149Z,82.78
2022-11-30T00:09:42.999Z,82.45
2022-11-30T00:12:12.556Z,81.29
2022-11-30T00:14:46.994Z,80.45
2022-11-30T00:17:17.651Z,81.64
2022-11-30T00:19:46.656Z,82.83
2022-11-30T00:22:17.245Z,81.63
2022-11-30T00:24:47.128Z,81.74
2022-11-30T00:27:16.317Z,81.58
2022-11-30T00:29:44.633Z,81.71
2022-11-30T00:32:14.247Z,81.68
2022-11-30T00:34:44.662Z,81.58
2022-11-30T00:37:16.255Z,81.10
2022-11-30T00:39:46.206Z,81.04
2022-11-30T00:42:15.084Z,80.75
2022-11-30T00:44:44.690Z,81.14
2022-11-30T00:47:13.813Z,81.48
2022-11-30T00:49:43.357Z,80.95
2022-11-30T00:52:12.622Z,81.77
2022-11-30T00:54:40.625Z,80.91
2022-11-30T00:57:09.364Z,81.01
2022-11-30T00:59:38.078Z,81.03
2022-11-30T01:02:09.153Z,80.12
2022-11-30T01:04:42.777Z,80.16
2022-11-30T01:07:11.936Z,79.41
2022-11-30T01:09:43.621Z,79.79
2022-11-30T01:12:13.034Z,81.14
2022-11-30T01:14:42.572Z,80.57
2022-11-30T01:17:12.153Z,80.72
2022-11-30T01:19:46.898Z,79.32
2022-11-30T01:22:16.983Z,79.47
2022-11-30T01:24:46.592Z,78.72
2022-11-30T01:27:16.404Z,80.06
2022-11-30T01:29:45.736Z,81.03
2022-11-30T01:32:13.711Z,81.04
2022-11-30T01:34:42.597Z,80.19
2022-11-30T01:37:14.360Z,78.86
2022-11-30T01:39:43.661Z,78.76
2022-11-30T01:42:19.865Z,79.41
2022-11-30T01:44:52.401Z,80.18
2022-11-30T01:47:29.058Z,78.79
2022-11-30T01:50:23.673Z,79.34
2022-11-30T01:52:56.811Z,78.33
2022-11-30T01:55:35.551Z,77.55
2022-11-30T01:58:10.374Z,77.54
2022-11-30T02:00:43.766Z,78.20
2022-11-30T02:03:18.024Z,79.26
2022-11-30T02:05:47.639Z,78.96
2022-11-30T02:08:17.861Z,79.20
2022-11-30T02:10:53.634Z,79.67
2022-11-30T02:13:46.973Z,77.73
2022-11-30T02:16:33.724Z,77.44
2022-11-30T02:19:05.464Z,79.68
2022-11-30T02:21:52.230Z,78.22
2022-11-30T02:24:51.387Z,78.80
2022-11-30T02:27:49.296Z,79.25
2022-11-30T02:30:23.458Z,77.76
2022-11-30T02:33:00.960Z,78.02
2022-11-30T02:35:36.363Z,78.73
2022-11-30T02:38:09.179Z,78.72
2022-11-30T02:40:38.741Z,79.34
2022-11-30T02:43:10.358Z,79.54
2022-11-30T02:46:08.950Z,78.70
2022-11-30T02:49:11.376Z,78.66
2022-11-30T02:51:42.095Z,79.25
2022-11-30T02:54:11.902Z,79.82
2022-11-30T02:56:40.959Z,79.06
2022-11-30T02:59:10.751Z,78.89
2022-11-30T03:01:43.363Z,79.52
2022-11-30T03:04:14.055Z,79.05
2022-11-30T03:06:46.678Z,79.77
2022-11-30T03:09:17.782Z,78.72
2022-11-30T03:11:47.242Z,79.35
2022-11-30T03:14:19.387Z,80.21
2022-11-30T03:16:49.497Z,79.08
2022-11-30T03:19:20.028Z,79.33
2022-11-30T03:21:47.576Z,78.60
2022-11-30T03:24:18.791Z,79.59
2022-11-30T03:26:49.096Z,80.19
2022-11-30T03:29:18.743Z,81.07
2022-11-30T03:31:49.936Z,80.77
2022-11-30T03:34:18.723Z,80.20
2022-11-30T03:36:49.351Z,80.37
2022-11-30T03:39:25.195Z,79.22
2022-11-30T03:41:54.251Z,79.71
2022-11-30T03:44:22.835Z,80.73
2022-11-30T03:46:52.187Z,81.05
2022-11-30T03:49:20.762Z,80.18
2022-11-30T03:51:50.611Z,79.42
2022-11-30T03:54:21.875Z,80.47
2022-11-30T03:56:52.473Z,80.60
2022-11-30T03:59:20.715Z,81.59
2022-11-30T04:01:50.443Z,80.55
2022-11-30T04:04:21.309Z,80.12
2022-11-30T04:06:49.750Z,79.73
2022-11-30T04:09:20.714Z,81.91
2022-11-30T04:11:49.014Z,81.34
2022-11-30T04:14:18.809Z,80.06
2022-11-30T04:16:50.295Z,80.04
2022-11-30T04:19:20.254Z,80.96
2022-11-30T04:21:53.091Z,81.06
2022-11-30T04:24:23.051Z,81.61
2022-11-30T04:26:54.819Z,80.00
2022-11-30T04:29:38.456Z,80.76
2022-11-30T04:32:07.181Z,80.44
2022-11-30T04:34:37.596Z,79.29
2022-11-30T04:37:06.127Z,79.09
2022-11-30T04:39:36.717Z,79.91
2022-11-30T04:42:19.134Z,80.25
2022-11-30T04:47:35.841Z,80.55
2022-11-30T04:53:02.759Z,81.33
2022-11-30T04:55:45.917Z,81.50
2022-11-30T04:58:14.648Z,82.37
2022-11-30T05:00:57.905Z,81.46
2022-11-30T05:03:30.845Z,80.85
2022-11-30T05:06:20.388Z,79.95
2022-11-30T05:08:55.271Z,80.26
2022-11-30T05:11:27.331Z,80.48
2022-11-30T05:14:02.631Z,80.27
2022-11-30T05:16:32.952Z,80.45
2022-11-30T05:22:01.762Z,82.35
2022-11-30T05:24:30.927Z,80.45
2022-11-30T05:27:12.683Z,80.15
2022-11-30T05:29:58.548Z,81.67
2022-11-30T05:35:12.029Z,81.04
2022-11-30T05:46:11.217Z,80.39
2022-11-30T05:48:47.491Z,82.29
2022-11-30T05:51:19.942Z,79.95
2022-11-30T05:53:53.485Z,79.14
2022-11-30T05:56:22.645Z,78.81
2022-11-30T06:01:33.882Z,78.28
2022-11-30T06:04:19.985Z,76.82
2022-11-30T06:06:56.603Z,76.88
2022-11-30T06:09:27.532Z,76.77
2022-11-30T06:12:03.756Z,77.24
2022-11-30T06:14:36.791Z,77.49
2022-11-30T06:17:11.812Z,77.92
2022-11-30T06:19:59.197Z,76.79
2022-11-30T06:36:15.112Z,75.72
2022-11-30T06:38:45.060Z,75.44
2022-11-30T06:41:14.038Z,74.80
2022-11-30T06:43:46.082Z,74.18
2022-11-30T06:46:17.966Z,73.57
2022-11-30T06:48:55.216Z,72.84
2022-11-30T06:54:40.004Z,71.50
2022-11-30T06:57:16.116Z,72.81
2022-11-30T07:02:56.930Z,72.79
2022-11-30T07:14:49.015Z,69.94
2022-11-30T07:17:33.094Z,70.18
2022-11-30T07:30:34.128Z,70.71
2022-11-30T07:39:42.194Z,68.00
2022-11-30T07:54:15.404Z,68.64
2022-11-30T08:05:44.753Z,67.67
2022-11-30T08:20:03.314Z,66.02
2022-11-30T08:56:51.342Z,63.34
2022-11-30T09:37:40.610Z,57.74
2022-11-30T09:46:38.208Z,57.37
2022-11-30T09:52:58.888Z,56.11
2022-11-30T09:55:42.811Z,56.33
2022-11-30T09:58:48.331Z,54.37
2022-11-30T10:01:28.286Z,54.13
2022-11-30T10:12:14.496Z,53.80
2022-11-30T10:15:12.074Z,53.29
2022-11-30T10:18:05.304Z,52.73
2022-11-30T10:21:16.179Z,52.38
2022-11-30T10:23:54.142Z,53.18
2022-11-30T10:26:37.451Z,53.92
2022-11-30T10:29:29.155Z,53.24
2022-11-30T10:32:06.216Z,52.14
2022-11-30T10:34:39.033Z,54.24
2022-11-30T10:37:41.011Z,54.23
2022-11-30T10:40:44.713Z,54.69
2022-11-30T10:43:48.983Z,53.22
2022-11-30T10:46:38.866Z,55.13
2022-11-30T10:49:20.093Z,54.18
2022-11-30T10:54:46.646Z,54.06
2022-11-30T10:57:17.356Z,54.01
2022-11-30T11:00:00.477Z,54.73
2022-11-30T11:02:53.578Z,54.50
2022-11-30T11:05:26.961Z,52.64
2022-11-30T11:08:27.004Z,51.89
2022-11-30T11:11:04.775Z,50.82
2022-11-30T11:13:49.027Z,51.09
2022-11-30T11:16:19.212Z,51.17
2022-11-30T11:18:58.390Z,51.20
2022-11-30T11:21:31.198Z,50.71
2022-11-30T11:24:24.406Z,51.17
2022-11-30T11:26:55.101Z,50.93
2022-11-30T11:29:35.064Z,51.62
2022-11-30T11:32:21.348Z,52.04
2022-11-30T11:34:51.727Z,51.38
2022-11-30T11:37:28.410Z,51.68
2022-11-30T11:40:21.169Z,51.57
2022-11-30T11:48:57.508Z,52.13
2022-11-30T11:51:42.699Z,52.05
2022-11-30T11:54:41.371Z,52.60
2022-11-30T11:58:02.893Z,53.60
2022-11-30T12:00:32.575Z,52.37
2022-11-30T12:03:53.448Z,52.69
2022-11-30T12:06:23.944Z,54.13
2022-11-30T12:09:05.919Z,53.71
2022-11-30T12:11:44.348Z,55.41
2022-11-30T12:14:15.767Z,54.35
2022-11-30T12:17:21.969Z,54.36
2022-11-30T12:20:14.011Z,54.31
2022-11-30T12:22:56.371Z,54.15
2022-11-30T12:25:58.682Z,54.40
2022-11-30T12:28:49.847Z,55.50
2022-11-30T12:31:28.264Z,55.90
2022-11-30T12:41:28.307Z,55.76
2022-11-30T12:44:41.835Z,55.17
2022-11-30T12:51:02.389Z,55.95
2022-11-30T12:54:16.113Z,55.59
2022-11-30T12:57:04.624Z,56.44
2022-11-30T13:00:05.775Z,56.90
2022-11-30T13:03:29.803Z,56.52
2022-11-30T13:09:26.063Z,57.54
2022-11-30T13:12:06.927Z,58.14
2022-11-30T13:35:55.572Z,59.42
2022-11-30T13:38:36.793Z,59.23
2022-11-30T13:41:10.212Z,58.23
2022-11-30T13:46:40.817Z,58.08
2022-11-30T13:49:29.738Z,58.29
2022-11-30T13:55:21.026Z,57.71
2022-11-30T13:58:14.612Z,58.65
2022-11-30T14:01:02.818Z,59.08
2022-11-30T14:03:34.540Z,58.14
2022-11-30T14:09:45.499Z,59.54
2022-11-30T14:13:03.245Z,59.52
2022-11-30T14:15:55.508Z,59.38
2022-11-30T14:27:46.317Z,59.84
2022-11-30T14:36:13.007Z,60.53
2022-11-30T14:41:32.051Z,59.77
2022-11-30T14:47:22.177Z,60.96
2022-11-30T14:49:58.113Z,60.61
2022-11-30T14:53:12.983Z,60.20
2022-11-30T14:59:12.259Z,59.82
2022-11-30T15:01:45.905Z,61.11
2022-11-30T15:04:33.999Z,61.43
2022-11-30T15:07:18.033Z,61.22
2022-11-30T15:12:38.346Z,61.46
2022-11-30T15:15:36.129Z,60.24
2022-11-30T15:18:38.450Z,60.19
2022-11-30T15:21:31.252Z,60.80
2022-11-30T15:24:01.999Z,61.06
2022-11-30T15:29:49.218Z,59.76
2022-11-30T15:32:24.540Z,61.06
2022-11-30T15:35:01.189Z,60.59
2022-11-30T15:37:30.589Z,59.71
2022-11-30T15:40:03.051Z,59.78
2022-11-30T15:42:47.843Z,60.61
2022-11-30T15:45:33.624Z,59.62
2022-11-30T15:48:31.865Z,59.79
2022-11-30T15:51:07.697Z,60.21
2022-11-30T16:07:00.015Z,60.86
2022-11-30T16:09:49.657Z,61.42
2022-11-30T16:15:39.750Z,60.76
2022-11-30T16:18:29.137Z,60.70
2022-11-30T16:24:16.772Z,62.31
2022-11-30T16:27:00.649Z,62.61
2022-11-30T16:42:25.700Z,62.94
2022-11-30T16:51:34.227Z,63.26
2022-11-30T17:06:53.683Z,62.14
2022-11-30T17:19:15.291Z,62.20
2022-11-30T17:21:53.275Z,61.86
2022-11-30T17:27:20.729Z,61.41
2022-11-30T17:45:33.144Z,60.93
2022-11-30T17:48:34.764Z,61.81
2022-11-30T17:51:18.171Z,60.88
2022-11-30T18:00:20.838Z,60.11
2022-11-30T18:03:05.666Z,60.54
2022-11-30T18:05:37.547Z,60.71
2022-11-30T18:08:14.544Z,60.75
2022-11-30T18:19:51.350Z,59.96
2022-11-30T18:43:50.295Z,59.72
2022-11-30T19:02:24.681Z,59.41
2022-11-30T19:08:35.354Z,59.25
2022-11-30T19:11:10.289Z,59.70
2022-11-30T19:47:49.519Z,61.15
2022-11-30T19:50:35.245Z,61.93
2022-11-30T19:53:09.060Z,60.50
2022-11-30T19:58:43.795Z,60.88
2022-11-30T20:01:19.578Z,60.81
2022-11-30T20:07:31.665Z,61.46
2022-11-30T20:13:36.675Z,61.74
2022-11-30T20:43:25.129Z,63.06
2022-11-30T20:49:45.771Z,63.78
2022-11-30T20:52:43.374Z,64.20
2022-11-30T20:58:04.096Z,64.74
2022-11-30T21:00:35.286Z,64.88
2022-11-30T21:11:50.530Z,64.67
2022-11-30T21:17:12.762Z,64.44
2022-11-30T21:19:54.352Z,64.43
2022-11-30T21:22:25.394Z,63.82
2022-11-30T21:24:55.247Z,64.78
2022-11-30T21:30:47.020Z,64.90
2022-11-30T21:36:15.882Z,64.75
2022-11-30T21:38:45.929Z,64.62
2022-11-30T21:41:20.060Z,65.25
2022-11-30T21:44:04.911Z,64.61
2022-11-30T21:55:58.307Z,65.83
2022-11-30T22:13:56.250Z,66.76
2022-11-30T22:19:15.738Z,67.19
2022-11-30T22:22:01.558Z,66.67
2022-11-30T22:24:36.400Z,66.15
2022-11-30T22:27:08.717Z,67.28
2022-11-30T22:29:38.943Z,66.92
2022-11-30T22:32:25.185Z,67.55
2022-11-30T22:34:56.552Z,67.32
2022-11-30T22:37:28.606Z,67.28
2022-11-30T22:40:00.008Z,66.49
2022-11-30T22:42:35.902Z,66.70
2022-11-30T22:50:40.736Z,66.49
2022-11-30T22:57:28.701Z,67.11
2022-11-30T23:00:02.893Z,68.14
2022-11-30T23:02:35.464Z,67.53
2022-11-30T23:05:26.278Z,67.48
2022-11-30T23:07:55.318Z,67.87
2022-11-30T23:10:25.432Z,67.85
2022-11-30T23:13:00.114Z,67.73
2022-11-30T23:15:31.627Z,67.61
2022-11-30T23:18:03.431Z,68.89
2022-11-30T23:20:34.932Z,68.63
2022-11-30T23:23:06.923Z,69.03
2022-11-30T23:25:38.688Z,69.57
2022-11-30T23:28:20.866Z,70.22
2022-11-30T23:31:07.763Z,69.91
2022-11-30T23:33:39.517Z,70.48
2022-11-30T23:36:11.548Z,70.15
2022-11-30T23:38:56.048Z,70.35
2022-11-30T23:41:32.070Z,70.83
2022-11-30T23:44:11.418Z,71.16
2022-11-30T23:46:43.809Z,70.84
2022-11-30T23:49:34.117Z,71.35
2022-11-30T23:52:15.983Z,71.48
2022-11-30T23:57:52.950Z,72.81
